Time;durP1;ratioP1;P1;durP2;ratioP2;P2;SDS_P1;SDS_P2;PMS_P1;PMS_P2;Temp;Humidity;BMP_temperature;BMP_pressure;BME280_temperature;BME280_humidity;BME280_pressure;Samples;Min_cycle;Max_cycle;Signal;HPM_P1;HPM_P2
2023/01/13 00:00:07;;;;;;;0.50;0.50;;;;;;;;;;5159865;27;20224;-65
2023/01/13 00:02:35;;;;;;;0.75;0.60;;;;;;;;;;5159573;27;20607;-65
2023/01/13 00:05:03;;;;;;;0.40;0.40;;;;;;;;;;5159529;27;20201;-65
2023/01/13 00:07:31;;;;;;;0.40;0.40;;;;;;;;;;5159657;27;20256;-65
2023/01/13 00:10:00;;;;;;;0.40;0.40;;;;;;;;;;5159338;27;20198;-65
2023/01/13 00:12:28;;;;;;;0.30;0.30;;;;;;;;;;5159424;27;20494;-65
2023/01/13 00:14:55;;;;;;;0.45;0.45;;;;;;;;;;5158438;27;20582;-65
2023/01/13 00:17:23;;;;;;;1.33;0.43;;;;;;;;;;5159791;27;20214;-65
2023/01/13 00:19:51;;;;;;;0.47;0.47;;;;;;;;;;5159422;27;20233;-65
2023/01/13 00:22:19;;;;;;;0.30;0.30;;;;;;;;;;5159325;27;20270;-64
2023/01/13 00:24:46;;;;;;;0.30;0.30;;;;;;;;;;5159109;27;20220;-65
2023/01/13 00:27:16;;;;;;;0.30;0.30;;;;;;;;;;5159139;27;20292;-64
2023/01/13 00:29:43;;;;;;;0.38;0.30;;;;;;;;;;5159370;27;20201;-65
2023/01/13 00:32:11;;;;;;;0.43;0.35;;;;;;;;;;5159397;27;20282;-65
2023/01/13 00:34:39;;;;;;;0.68;0.40;;;;;;;;;;5159151;27;20201;-64
2023/01/13 00:37:07;;;;;;;0.70;0.40;;;;;;;;;;5162568;27;20201;-65
2023/01/13 00:39:34;;;;;;;0.38;0.30;;;;;;;;;;5163246;27;20632;-65
2023/01/13 00:44:48;;;;;;;0.50;0.40;;;;;;;;;;5163323;27;20188;-65
2023/01/13 00:47:17;;;;;;;0.60;0.40;;;;;;;;;;5163132;27;20202;-64
2023/01/13 00:49:44;;;;;;;0.50;0.35;;;;;;;;;;5163640;27;20198;-64
2023/01/13 00:52:12;;;;;;;0.55;0.40;;;;;;;;;;5163421;27;20213;-65
2023/01/13 00:54:40;;;;;;;0.43;0.40;;;;;;;;;;5163010;27;20354;-65
2023/01/13 00:57:08;;;;;;;0.40;0.40;;;;;;;;;;5163129;27;20612;-65
2023/01/13 00:59:36;;;;;;;0.50;0.30;;;;;;;;;;5162887;27;20237;-65
2023/01/13 01:02:05;;;;;;;0.30;0.30;;;;;;;;;;5162842;27;20296;-65
2023/01/13 01:04:33;;;;;;;0.30;0.30;;;;;;;;;;5163108;27;20600;-65
2023/01/13 01:07:00;;;;;;;0.40;0.35;;;;;;;;;;5163178;27;20205;-65
2023/01/13 01:09:31;;;;;;;0.88;0.50;;;;;;;;;;5163039;27;20634;-65
2023/01/13 01:11:59;;;;;;;2.08;0.40;;;;;;;;;;5162878;27;20300;-65
2023/01/13 01:14:27;;;;;;;0.70;0.40;;;;;;;;;;5162744;27;20254;-65
2023/01/13 01:16:55;;;;;;;0.43;0.43;;;;;;;;;;5162352;27;20248;-65
2023/01/13 01:19:24;;;;;;;0.43;0.30;;;;;;;;;;5162192;27;20293;-65
2023/01/13 01:21:51;;;;;;;0.73;0.30;;;;;;;;;;5162882;27;20201;-65
2023/01/13 01:24:19;;;;;;;0.77;0.43;;;;;;;;;;5162576;27;20202;-65
2023/01/13 01:26:47;;;;;;;0.40;0.30;;;;;;;;;;5162803;27;20278;-65
2023/01/13 01:29:15;;;;;;;0.65;0.30;;;;;;;;;;5162374;27;20197;-65
2023/01/13 01:31:43;;;;;;;0.40;0.30;;;;;;;;;;5162792;27;20569;-65
2023/01/13 01:34:11;;;;;;;0.30;0.30;;;;;;;;;;5162679;27;20548;-65
2023/01/13 01:36:40;;;;;;;0.75;0.30;;;;;;;;;;5162666;27;20293;-64
2023/01/13 01:39:08;;;;;;;0.45;0.30;;;;;;;;;;5162165;27;20312;-64
2023/01/13 01:41:36;;;;;;;0.40;0.40;;;;;;;;;;5162120;27;20270;-65
2023/01/13 01:44:05;;;;;;;0.30;0.30;;;;;;;;;;5162284;27;20234;-64
2023/01/13 01:46:35;;;;;;;0.32;0.30;;;;;;;;;;5162790;27;20258;-64
2023/01/13 01:49:16;;;;;;;0.30;0.20;;;;;;;;;;5161887;27;20276;-66
2023/01/13 01:51:47;;;;;;;0.30;0.25;;;;;;;;;;5162193;27;20266;-64
2023/01/13 01:54:18;;;;;;;0.30;0.30;;;;;;;;;;5161663;27;20230;-66
2023/01/13 01:56:47;;;;;;;0.30;0.30;;;;;;;;;;5161892;27;20201;-64
2023/01/13 01:59:15;;;;;;;0.52;0.32;;;;;;;;;;5162068;27;20235;-66
2023/01/13 02:01:43;;;;;;;0.40;0.40;;;;;;;;;;5161841;27;20300;-66
2023/01/13 02:04:12;;;;;;;0.57;0.25;;;;;;;;;;5161995;27;20534;-67
2023/01/13 02:06:40;;;;;;;0.40;0.30;;;;;;;;;;5161916;27;20209;-66
2023/01/13 02:09:10;;;;;;;0.30;0.30;;;;;;;;;;5161862;27;20206;-66
2023/01/13 02:14:27;;;;;;;0.32;0.20;;;;;;;;;;5126617;27;20197;-66
2023/01/13 02:17:01;;;;;;;0.28;0.28;;;;;;;;;;5161788;27;20693;-66
2023/01/13 02:19:40;;;;;;;0.32;0.32;;;;;;;;;;5161289;27;20257;-66
2023/01/13 02:22:23;;;;;;;0.32;0.30;;;;;;;;;;5160072;27;20256;-65
2023/01/13 02:25:06;;;;;;;0.43;0.40;;;;;;;;;;5158240;27;20296;-65
2023/01/13 02:27:55;;;;;;;0.20;0.20;;;;;;;;;;5161821;27;20777;-64
2023/01/13 02:33:26;;;;;;;0.25;0.25;;;;;;;;;;5161153;27;20194;-64
2023/01/13 02:35:58;;;;;;;0.30;0.30;;;;;;;;;;5161354;27;20209;-64
2023/01/13 02:38:29;;;;;;;0.82;0.30;;;;;;;;;;5161511;27;20201;-65
2023/01/13 02:44:05;;;;;;;0.57;0.30;;;;;;;;;;5161347;27;20478;-64
2023/01/13 02:44:05;;;;;;;0.40;0.30;;;;;;;;;;5161337;27;20560;-65
2023/01/13 02:46:37;;;;;;;0.20;0.20;;;;;;;;;;5161561;27;20189;-65
2023/01/13 02:49:07;;;;;;;0.35;0.35;;;;;;;;;;5161280;27;20201;-64
2023/01/13 02:51:35;;;;;;;0.50;0.40;;;;;;;;;;5161439;27;20202;-65
2023/01/13 02:54:05;;;;;;;0.30;0.30;;;;;;;;;;5161028;27;20321;-66
2023/01/13 02:56:35;;;;;;;0.30;0.30;;;;;;;;;;5161068;27;20201;-65
2023/01/13 02:59:02;;;;;;;0.57;0.30;;;;;;;;;;5160189;27;20201;-64
2023/01/13 03:01:30;;;;;;;0.30;0.28;;;;;;;;;;5160218;27;20236;-66
2023/01/13 03:03:59;;;;;;;0.30;0.30;;;;;;;;;;5160687;27;20491;-66
2023/01/13 03:06:37;;;;;;;0.35;0.30;;;;;;;;;;5160887;27;20202;-66
2023/01/13 03:09:09;;;;;;;0.30;0.30;;;;;;;;;;5160437;27;20212;-64
2023/01/13 03:11:40;;;;;;;0.20;0.20;;;;;;;;;;5160790;27;20240;-64
2023/01/13 03:14:12;;;;;;;0.60;0.30;;;;;;;;;;5160807;27;20198;-64
2023/01/13 03:16:43;;;;;;;0.45;0.32;;;;;;;;;;5160393;27;20227;-65
2023/01/13 03:19:19;;;;;;;0.52;0.20;;;;;;;;;;5160332;27;20243;-65
2023/01/13 03:21:49;;;;;;;0.30;0.30;;;;;;;;;;5160129;27;20197;-65
2023/01/13 03:24:18;;;;;;;0.63;0.30;;;;;;;;;;5158715;27;20297;-65
2023/01/13 03:26:47;;;;;;;0.32;0.30;;;;;;;;;;5159881;27;20536;-65
2023/01/13 03:29:18;;;;;;;0.30;0.20;;;;;;;;;;5159935;27;20209;-64
2023/01/13 03:31:49;;;;;;;0.47;0.30;;;;;;;;;;5160328;27;20260;-64
2023/01/13 03:34:21;;;;;;;0.38;0.22;;;;;;;;;;5160016;27;20569;-64
2023/01/13 03:36:52;;;;;;;0.40;0.30;;;;;;;;;;5159833;27;20201;-64
2023/01/13 03:39:23;;;;;;;0.28;0.20;;;;;;;;;;5159731;27;20550;-64
2023/01/13 03:41:53;;;;;;;0.40;0.35;;;;;;;;;;5160016;27;20232;-64
2023/01/13 03:44:21;;;;;;;0.30;0.30;;;;;;;;;;5159995;27;20201;-64
2023/01/13 03:46:53;;;;;;;0.20;0.20;;;;;;;;;;5159874;27;20588;-64
2023/01/13 03:49:23;;;;;;;0.25;0.20;;;;;;;;;;5159489;27;20248;-64
2023/01/13 03:51:53;;;;;;;0.40;0.30;;;;;;;;;;5159662;27;20305;-66
2023/01/13 03:54:22;;;;;;;0.20;0.20;;;;;;;;;;5159643;27;20228;-65
2023/01/13 03:56:52;;;;;;;0.22;0.22;;;;;;;;;;5159747;27;20537;-64
2023/01/13 03:59:22;;;;;;;0.52;0.28;;;;;;;;;;5159954;27;20280;-66
2023/01/13 04:01:52;;;;;;;0.30;0.28;;;;;;;;;;5159363;27;20640;-64
2023/01/13 04:04:24;;;;;;;0.22;0.22;;;;;;;;;;5159181;27;20210;-64
2023/01/13 04:06:54;;;;;;;0.20;0.20;;;;;;;;;;5159139;27;20205;-66
2023/01/13 04:09:26;;;;;;;0.22;0.20;;;;;;;;;;5159628;27;20201;-65
2023/01/13 04:11:56;;;;;;;0.20;0.20;;;;;;;;;;5158912;27;20201;-64
2023/01/13 04:14:26;;;;;;;0.30;0.30;;;;;;;;;;5159122;27;20593;-64
2023/01/13 04:16:54;;;;;;;0.20;0.20;;;;;;;;;;5159250;27;20213;-66
2023/01/13 04:19:23;;;;;;;0.55;0.30;;;;;;;;;;5159033;27;20210;-64
2023/01/13 04:21:51;;;;;;;0.20;0.20;;;;;;;;;;5159089;27;20225;-66
2023/01/13 04:24:19;;;;;;;0.30;0.30;;;;;;;;;;5159178;27;20202;-67
2023/01/13 04:26:47;;;;;;;0.40;0.40;;;;;;;;;;5159329;27;20269;-66
2023/01/13 04:29:14;;;;;;;0.30;0.30;;;;;;;;;;5158109;27;20213;-66
2023/01/13 04:31:42;;;;;;;0.22;0.20;;;;;;;;;;5159343;27;20634;-66
2023/01/13 04:34:11;;;;;;;0.22;0.22;;;;;;;;;;5158849;27;20284;-66
2023/01/13 04:36:40;;;;;;;0.25;0.20;;;;;;;;;;5158639;27;20266;-67
2023/01/13 04:39:07;;;;;;;0.30;0.30;;;;;;;;;;5158779;27;20201;-66
2023/01/13 04:44:16;;;;;;;0.20;0.20;;;;;;;;;;5158338;27;20237;-64
2023/01/13 04:46:44;;;;;;;0.30;0.30;;;;;;;;;;5158687;27;20244;-66
2023/01/13 04:49:12;;;;;;;0.40;0.40;;;;;;;;;;5158335;27;20250;-66
2023/01/13 04:51:41;;;;;;;0.30;0.30;;;;;;;;;;5158425;27;20197;-64
2023/01/13 04:54:10;;;;;;;0.40;0.30;;;;;;;;;;5158220;27;20321;-66
2023/01/13 04:56:38;;;;;;;0.28;0.28;;;;;;;;;;5158521;27;20217;-66
2023/01/13 04:59:05;;;;;;;0.25;0.25;;;;;;;;;;5158909;27;20233;-64
2023/01/13 05:01:33;;;;;;;0.30;0.10;;;;;;;;;;5158218;27;20231;-66
2023/01/13 05:04:00;;;;;;;0.30;0.30;;;;;;;;;;5158398;27;20245;-65
2023/01/13 05:06:28;;;;;;;0.22;0.20;;;;;;;;;;5158569;27;20292;-64
2023/01/13 05:08:57;;;;;;;0.38;0.30;;;;;;;;;;5158418;27;20296;-65
2023/01/13 05:17:02;;;;;;;0.40;0.30;;;;;;;;;;5157714;27;20185;-64
2023/01/13 05:19:30;;;;;;;0.22;0.22;;;;;;;;;;5157608;27;20208;-66
2023/01/13 05:27:29;;;;;;;0.22;0.20;;;;;;;;;;5161170;27;20197;-66
2023/01/13 05:29:56;;;;;;;0.30;0.30;;;;;;;;;;5162506;27;20197;-66
2023/01/13 05:32:24;;;;;;;0.40;0.30;;;;;;;;;;5160703;27;20355;-66
2023/01/13 05:34:52;;;;;;;0.63;0.30;;;;;;;;;;5161443;27;20708;-65
2023/01/13 05:37:19;;;;;;;0.20;0.20;;;;;;;;;;5160948;27;20296;-64
2023/01/13 05:45:18;;;;;;;0.38;0.20;;;;;;;;;;5160432;27;20197;-64
2023/01/13 05:47:45;;;;;;;0.30;0.30;;;;;;;;;;5160433;27;20202;-65
2023/01/13 05:50:13;;;;;;;0.73;0.40;;;;;;;;;;5159972;27;20202;-64
2023/01/13 05:52:40;;;;;;;0.40;0.40;;;;;;;;;;5159285;27;20530;-64
2023/01/13 05:55:10;;;;;;;0.30;0.30;;;;;;;;;;5159821;27;20663;-66
2023/01/13 05:57:37;;;;;;;0.30;0.20;;;;;;;;;;5159395;27;20206;-64
2023/01/13 06:00:05;;;;;;;0.68;0.30;;;;;;;;;;5160112;27;20292;-65
2023/01/13 06:02:32;;;;;;;0.43;0.40;;;;;;;;;;5159442;27;20486;-64
2023/01/13 06:05:00;;;;;;;0.38;0.38;;;;;;;;;;5158372;27;20301;-64
2023/01/13 06:07:27;;;;;;;0.30;0.30;;;;;;;;;;5159297;27;20296;-66
2023/01/13 06:09:55;;;;;;;0.35;0.35;;;;;;;;;;5159703;27;20800;-65
2023/01/13 06:12:23;;;;;;;0.50;0.30;;;;;;;;;;5159617;27;20201;-64
2023/01/13 06:14:51;;;;;;;0.20;0.20;;;;;;;;;;5158384;27;20201;-65
2023/01/13 06:17:18;;;;;;;0.43;0.40;;;;;;;;;;5158629;27;20216;-64
2023/01/13 06:19:46;;;;;;;0.20;0.20;;;;;;;;;;5158361;27;20466;-64
2023/01/13 06:22:16;;;;;;;0.30;0.30;;;;;;;;;;5158086;27;20580;-64
2023/01/13 06:24:44;;;;;;;1.05;0.30;;;;;;;;;;5158376;27;20546;-65
2023/01/13 06:27:12;;;;;;;0.30;0.30;;;;;;;;;;5158447;27;20231;-64
2023/01/13 06:29:41;;;;;;;0.50;0.40;;;;;;;;;;5158138;27;20300;-65
2023/01/13 06:32:11;;;;;;;0.40;0.40;;;;;;;;;;5158059;27;20205;-65
2023/01/13 06:34:39;;;;;;;0.30;0.30;;;;;;;;;;5156031;27;20615;-65
2023/01/13 06:37:07;;;;;;;0.43;0.30;;;;;;;;;;5157471;27;20296;-65
2023/01/13 06:39:35;;;;;;;0.30;0.30;;;;;;;;;;5157996;27;20202;-64
2023/01/13 06:44:50;;;;;;;0.38;0.38;;;;;;;;;;5137234;27;20197;-65
2023/01/13 06:47:18;;;;;;;0.50;0.30;;;;;;;;;;5137232;27;20301;-64
2023/01/13 06:49:45;;;;;;;0.30;0.30;;;;;;;;;;5137247;27;20210;-64
2023/01/13 06:52:12;;;;;;;0.50;0.20;;;;;;;;;;5137335;27;20245;-64
2023/01/13 06:54:40;;;;;;;0.30;0.30;;;;;;;;;;5137087;27;20269;-65
2023/01/13 06:57:07;;;;;;;0.25;0.25;;;;;;;;;;5137735;27;20783;-64
2023/01/13 06:59:35;;;;;;;0.20;0.20;;;;;;;;;;5137132;27;20259;-64
2023/01/13 07:02:04;;;;;;;0.30;0.30;;;;;;;;;;5136984;27;20226;-65
2023/01/13 07:04:31;;;;;;;0.35;0.20;;;;;;;;;;5137465;27;20530;-64
2023/01/13 07:06:58;;;;;;;0.25;0.25;;;;;;;;;;5137634;27;20242;-65
2023/01/13 07:09:26;;;;;;;0.65;0.30;;;;;;;;;;5137114;27;20727;-66
2023/01/13 07:11:53;;;;;;;0.90;0.30;;;;;;;;;;5137968;27;20473;-65
2023/01/13 07:17:07;;;;;;;0.43;0.20;;;;;;;;;;5137449;27;20316;-64
2023/01/13 07:19:35;;;;;;;0.38;0.38;;;;;;;;;;5137092;27;20503;-64
2023/01/13 07:22:02;;;;;;;0.60;0.50;;;;;;;;;;5136729;27;20234;-66
2023/01/13 07:24:29;;;;;;;1.17;0.30;;;;;;;;;;5137414;27;20291;-64
2023/01/13 07:26:57;;;;;;;0.30;0.30;;;;;;;;;;5138070;27;20213;-65
2023/01/13 07:29:24;;;;;;;0.52;0.40;;;;;;;;;;5137018;27;20285;-65
2023/01/13 07:31:52;;;;;;;0.50;0.35;;;;;;;;;;5137238;27;20198;-65
2023/01/13 07:34:20;;;;;;;0.30;0.30;;;;;;;;;;5136688;27;20293;-64
2023/01/13 07:36:48;;;;;;;1.38;0.40;;;;;;;;;;5136935;27;20259;-64
2023/01/13 07:39:15;;;;;;;0.40;0.30;;;;;;;;;;5137179;27;20655;-64
2023/01/13 07:44:27;;;;;;;0.63;0.30;;;;;;;;;;5136740;27;20189;-65
2023/01/13 07:46:55;;;;;;;0.75;0.22;;;;;;;;;;5137003;27;20202;-65
2023/01/13 07:49:24;;;;;;;1.52;0.35;;;;;;;;;;5136937;27;20225;-64
2023/01/13 07:51:51;;;;;;;0.30;0.30;;;;;;;;;;5136358;27;20264;-65
2023/01/13 07:54:18;;;;;;;0.40;0.40;;;;;;;;;;5136306;27;20329;-64
2023/01/13 07:56:46;;;;;;;0.30;0.30;;;;;;;;;;5136410;27;20238;-64
2023/01/13 07:59:13;;;;;;;0.65;0.28;;;;;;;;;;5136277;27;20301;-65
2023/01/13 08:01:41;;;;;;;0.35;0.30;;;;;;;;;;5136549;27;20226;-64
2023/01/13 08:04:08;;;;;;;1.38;0.30;;;;;;;;;;5136823;27;20194;-64
2023/01/13 08:06:37;;;;;;;0.32;0.30;;;;;;;;;;5136436;27;20305;-65
2023/01/13 08:09:04;;;;;;;0.30;0.20;;;;;;;;;;5136906;27;20253;-64
2023/01/13 08:11:32;;;;;;;0.30;0.30;;;;;;;;;;5135956;27;20285;-64
2023/01/13 08:13:59;;;;;;;0.65;0.35;;;;;;;;;;5136276;27;20225;-65
2023/01/13 08:16:26;;;;;;;0.30;0.30;;;;;;;;;;5136206;27;20202;-64
2023/01/13 08:18:54;;;;;;;0.35;0.30;;;;;;;;;;5136293;27;20480;-64
2023/01/13 08:21:21;;;;;;;0.40;0.40;;;;;;;;;;5135688;27;20283;-64
2023/01/13 08:23:50;;;;;;;0.50;0.20;;;;;;;;;;5136083;27;20320;-64
2023/01/13 08:26:19;;;;;;;1.02;0.40;;;;;;;;;;5135289;27;20292;-65
2023/01/13 08:28:46;;;;;;;0.40;0.20;;;;;;;;;;5136138;27;20297;-65
2023/01/13 08:31:15;;;;;;;0.30;0.30;;;;;;;;;;5135719;27;20609;-64
2023/01/13 08:33:42;;;;;;;0.30;0.30;;;;;;;;;;5135335;27;20203;-64
2023/01/13 08:36:12;;;;;;;0.73;0.40;;;;;;;;;;5136607;27;20502;-64
2023/01/13 08:38:39;;;;;;;0.40;0.30;;;;;;;;;;5136278;27;20202;-64
2023/01/13 08:41:12;;;;;;;0.63;0.40;;;;;;;;;;5136125;28;20248;-64
2023/01/13 08:43:39;;;;;;;0.30;0.30;;;;;;;;;;5136819;27;20813;-64
2023/01/13 08:46:06;;;;;;;0.30;0.30;;;;;;;;;;5136777;28;20202;-64
2023/01/13 08:48:34;;;;;;;0.43;0.30;;;;;;;;;;5136156;28;20278;-66
2023/01/13 08:51:02;;;;;;;0.32;0.20;;;;;;;;;;5136094;28;20202;-65
2023/01/13 08:53:30;;;;;;;0.40;0.40;;;;;;;;;;5136139;28;20233;-64
2023/01/13 08:55:57;;;;;;;0.30;0.30;;;;;;;;;;5135762;27;20284;-65
2023/01/13 08:58:26;;;;;;;0.20;0.20;;;;;;;;;;5139866;27;20209;-65
2023/01/13 09:00:53;;;;;;;0.40;0.40;;;;;;;;;;5140497;27;20308;-66
2023/01/13 09:03:21;;;;;;;0.30;0.30;;;;;;;;;;5139354;27;20233;-65
2023/01/13 09:05:48;;;;;;;0.60;0.30;;;;;;;;;;5139949;27;20538;-66
2023/01/13 09:08:16;;;;;;;0.30;0.30;;;;;;;;;;5139468;27;20205;-66
2023/01/13 09:10:43;;;;;;;0.75;0.40;;;;;;;;;;5139429;27;20202;-66
2023/01/13 09:13:12;;;;;;;0.70;0.30;;;;;;;;;;5139690;27;20301;-65
2023/01/13 09:15:42;;;;;;;0.52;0.40;;;;;;;;;;5140259;27;20374;-64
2023/01/13 09:18:10;;;;;;;0.20;0.20;;;;;;;;;;5140167;27;20206;-65
2023/01/13 09:20:37;;;;;;;0.40;0.20;;;;;;;;;;5139351;27;20234;-65
2023/01/13 09:23:05;;;;;;;0.43;0.40;;;;;;;;;;5139802;27;20222;-66
2023/01/13 09:25:34;;;;;;;0.30;0.30;;;;;;;;;;5140544;27;20202;-66
2023/01/13 09:28:03;;;;;;;0.30;0.30;;;;;;;;;;5140386;27;20202;-64
2023/01/13 09:30:31;;;;;;;0.32;0.25;;;;;;;;;;5139923;27;20298;-66
2023/01/13 09:35:45;;;;;;;0.30;0.30;;;;;;;;;;5139428;27;20263;-66
2023/01/13 09:38:12;;;;;;;0.50;0.30;;;;;;;;;;5139691;27;20263;-66
2023/01/13 09:40:42;;;;;;;0.30;0.30;;;;;;;;;;5140163;27;20216;-64
2023/01/13 09:46:04;;;;;;;0.28;0.20;;;;;;;;;;5138476;27;20355;-66
2023/01/13 09:48:50;;;;;;;0.30;0.30;;;;;;;;;;5138743;27;20302;-65
2023/01/13 09:51:20;;;;;;;0.30;0.30;;;;;;;;;;5138563;27;20663;-64
2023/01/13 09:53:51;;;;;;;0.25;0.20;;;;;;;;;;5137951;27;20280;-64
2023/01/13 09:56:18;;;;;;;1.35;0.20;;;;;;;;;;5138933;27;20214;-64
2023/01/13 09:58:46;;;;;;;0.20;0.20;;;;;;;;;;5137933;27;20213;-66
2023/01/13 10:01:16;;;;;;;0.57;0.30;;;;;;;;;;5138803;27;20476;-66
2023/01/13 10:03:47;;;;;;;0.40;0.22;;;;;;;;;;5138227;27;20198;-66
2023/01/13 10:06:18;;;;;;;0.30;0.30;;;;;;;;;;5138972;27;20202;-66
2023/01/13 10:08:46;;;;;;;0.22;0.22;;;;;;;;;;5137259;27;20229;-66
2023/01/13 10:14:01;;;;;;;0.35;0.30;;;;;;;;;;5116939;28;20627;-65
2023/01/13 10:16:33;;;;;;;0.30;0.30;;;;;;;;;;5119038;28;20202;-63
2023/01/13 10:19:06;;;;;;;0.50;0.30;;;;;;;;;;5127298;27;20202;-63
2023/01/13 10:21:49;;;;;;;2.00;0.30;;;;;;;;;;5117227;28;20277;-64
2023/01/13 10:24:21;;;;;;;0.30;0.30;;;;;;;;;;5120326;27;20294;-64
2023/01/13 10:26:51;;;;;;;0.70;0.30;;;;;;;;;;5117139;28;20348;-64
2023/01/13 10:29:20;;;;;;;0.57;0.47;;;;;;;;;;5117205;28;20301;-64
2023/01/13 10:31:47;;;;;;;0.30;0.30;;;;;;;;;;5116576;28;20199;-64
2023/01/13 10:34:16;;;;;;;0.30;0.20;;;;;;;;;;5118547;27;20302;-64
2023/01/13 10:36:56;;;;;;;1.50;0.30;;;;;;;;;;5120947;27;20622;-64
2023/01/13 10:39:24;;;;;;;1.48;0.38;;;;;;;;;;5137233;27;20637;-65
2023/01/13 10:42:01;;;;;;;0.30;0.30;;;;;;;;;;5137106;27;20229;-64
2023/01/13 10:44:28;;;;;;;0.60;0.32;;;;;;;;;;5144848;27;20277;-65
2023/01/13 10:46:56;;;;;;;1.77;0.50;;;;;;;;;;5157839;27;20725;-65
2023/01/13 10:49:28;;;;;;;0.60;0.30;;;;;;;;;;5157504;27;20237;-64
2023/01/13 10:51:55;;;;;;;1.33;0.38;;;;;;;;;;5157502;27;20278;-65
2023/01/13 10:57:14;;;;;;;0.50;0.30;;;;;;;;;;5329408;22;20330;-64
2023/01/13 10:59:42;;;;;;;0.30;0.30;;;;;;;;;;5075080;28;20215;-64
2023/01/13 11:02:19;;;;;;;0.40;0.20;;;;;;;;;;5074714;28;20259;-64
2023/01/13 11:04:59;;;;;;;0.52;0.30;;;;;;;;;;5076154;28;20287;-64
2023/01/13 11:07:30;;;;;;;0.35;0.30;;;;;;;;;;5075805;28;20216;-64
2023/01/13 11:10:12;;;;;;;0.20;0.20;;;;;;;;;;5074971;28;20269;-64
2023/01/13 11:12:44;;;;;;;0.32;0.22;;;;;;;;;;5075500;28;20289;-64
2023/01/13 11:15:15;;;;;;;0.40;0.40;;;;;;;;;;5075601;28;20287;-64
2023/01/13 11:17:46;;;;;;;0.28;0.20;;;;;;;;;;5075523;28;20200;-64
2023/01/13 11:20:18;;;;;;;0.38;0.35;;;;;;;;;;5075328;28;20211;-64
2023/01/13 11:22:47;;;;;;;0.88;0.20;;;;;;;;;;5074936;28;20234;-64
2023/01/13 11:25:16;;;;;;;0.20;0.20;;;;;;;;;;5074802;28;20200;-64
2023/01/13 11:27:48;;;;;;;0.30;0.30;;;;;;;;;;5074413;28;20300;-64
2023/01/13 11:30:21;;;;;;;0.80;0.40;;;;;;;;;;5074440;28;20203;-64
2023/01/13 11:32:56;;;;;;;0.30;0.30;;;;;;;;;;5075195;28;20193;-64
2023/01/13 11:35:26;;;;;;;0.75;0.30;;;;;;;;;;5075050;28;20319;-64
2023/01/13 11:37:55;;;;;;;0.52;0.30;;;;;;;;;;5074652;28;20210;-64
2023/01/13 11:40:26;;;;;;;0.30;0.30;;;;;;;;;;5073949;28;20287;-64
2023/01/13 11:42:58;;;;;;;0.20;0.20;;;;;;;;;;5074060;28;20231;-64
2023/01/13 11:45:31;;;;;;;0.30;0.30;;;;;;;;;;5074701;28;20204;-64
2023/01/13 11:48:00;;;;;;;0.25;0.22;;;;;;;;;;5074503;28;20215;-64
2023/01/13 11:50:33;;;;;;;0.30;0.20;;;;;;;;;;5073189;28;20251;-64
2023/01/13 11:53:08;;;;;;;0.30;0.30;;;;;;;;;;5074009;28;20261;-64
2023/01/13 11:55:39;;;;;;;0.20;0.20;;;;;;;;;;5073286;28;20249;-64
2023/01/13 11:58:17;;;;;;;0.20;0.20;;;;;;;;;;5074004;28;20213;-64
2023/01/13 12:00:52;;;;;;;0.88;0.35;;;;;;;;;;5073318;28;20257;-64
2023/01/13 12:03:26;;;;;;;0.20;0.20;;;;;;;;;;5072993;28;20532;-64
2023/01/13 12:06:02;;;;;;;0.30;0.20;;;;;;;;;;5073406;28;20295;-64
2023/01/13 12:08:40;;;;;;;0.85;0.30;;;;;;;;;;5073503;28;20204;-64
2023/01/13 12:11:11;;;;;;;0.20;0.20;;;;;;;;;;5053184;28;20208;-64
2023/01/13 12:13:49;;;;;;;0.22;0.22;;;;;;;;;;5056329;28;20291;-64
2023/01/13 12:16:27;;;;;;;0.43;0.20;;;;;;;;;;5072841;28;20204;-64
2023/01/13 12:19:09;;;;;;;0.25;0.25;;;;;;;;;;5072936;28;20536;-64
2023/01/13 12:21:39;;;;;;;0.30;0.30;;;;;;;;;;5073158;28;20211;-64
2023/01/13 12:24:12;;;;;;;0.22;0.20;;;;;;;;;;5073364;28;20319;-64
2023/01/13 12:26:42;;;;;;;0.95;0.50;;;;;;;;;;5073410;28;20614;-64
2023/01/13 12:29:13;;;;;;;0.30;0.30;;;;;;;;;;5072989;28;20208;-64
2023/01/13 12:31:41;;;;;;;0.95;0.30;;;;;;;;;;5072367;28;20208;-64
2023/01/13 12:34:15;;;;;;;0.30;0.30;;;;;;;;;;5074063;28;20199;-64
2023/01/13 12:36:51;;;;;;;0.22;0.22;;;;;;;;;;5074246;28;20286;-64
2023/01/13 12:39:24;;;;;;;0.40;0.28;;;;;;;;;;5073324;28;20296;-64
2023/01/13 12:44:59;;;;;;;0.52;0.43;;;;;;;;;;5072967;28;20305;-64
2023/01/13 12:47:33;;;;;;;0.20;0.20;;;;;;;;;;5073083;28;20618;-64
2023/01/13 12:50:33;;;;;;;0.20;0.20;;;;;;;;;;5073653;28;20302;-64
2023/01/13 12:53:22;;;;;;;1.00;0.40;;;;;;;;;;5072391;28;20196;-64
2023/01/13 12:55:53;;;;;;;0.28;0.28;;;;;;;;;;5072138;28;20240;-64
2023/01/13 12:58:26;;;;;;;0.35;0.35;;;;;;;;;;5072271;28;20501;-64
2023/01/13 13:01:01;;;;;;;0.30;0.20;;;;;;;;;;5072940;28;20222;-64
2023/01/13 13:03:33;;;;;;;0.30;0.30;;;;;;;;;;5071834;28;20259;-64
2023/01/13 13:06:10;;;;;;;0.30;0.30;;;;;;;;;;5072774;28;20652;-64
2023/01/13 13:08:58;;;;;;;0.82;0.30;;;;;;;;;;5071985;28;20215;-64
2023/01/13 13:14:44;;;;;;;0.68;0.22;;;;;;;;;;5072454;28;20349;-64
2023/01/13 13:17:26;;;;;;;0.30;0.30;;;;;;;;;;5072887;28;20230;-64
2023/01/13 13:19:54;;;;;;;0.30;0.30;;;;;;;;;;5072196;28;20303;-64
2023/01/13 13:22:36;;;;;;;0.85;0.20;;;;;;;;;;5073516;28;20209;-64
2023/01/13 13:25:18;;;;;;;0.40;0.30;;;;;;;;;;5069610;28;20295;-64
2023/01/13 13:27:50;;;;;;;0.47;0.30;;;;;;;;;;5069012;28;20214;-64
2023/01/13 13:30:22;;;;;;;0.57;0.30;;;;;;;;;;5072063;28;20299;-64
2023/01/13 13:33:03;;;;;;;0.30;0.30;;;;;;;;;;5072461;28;20200;-64
2023/01/13 13:35:42;;;;;;;0.32;0.30;;;;;;;;;;5073368;28;20315;-64
2023/01/13 13:46:49;;;;;;;0.25;0.20;;;;;;;;;;5075904;28;20231;-64
2023/01/13 13:49:17;;;;;;;0.28;0.20;;;;;;;;;;5076710;28;20560;-64
2023/01/13 13:51:48;;;;;;;0.30;0.30;;;;;;;;;;5075242;28;20306;-64
2023/01/13 13:54:17;;;;;;;0.45;0.40;;;;;;;;;;5076151;28;20200;-64
2023/01/13 13:56:46;;;;;;;0.40;0.30;;;;;;;;;;5075687;28;20240;-64
2023/01/13 13:59:18;;;;;;;0.43;0.20;;;;;;;;;;5076721;28;20501;-64
2023/01/13 14:01:46;;;;;;;0.20;0.20;;;;;;;;;;5076233;28;20212;-64
2023/01/13 14:04:16;;;;;;;0.22;0.22;;;;;;;;;;5076438;28;20224;-64
2023/01/13 14:06:50;;;;;;;0.38;0.30;;;;;;;;;;5077152;28;20303;-64
2023/01/13 14:09:18;;;;;;;0.47;0.22;;;;;;;;;;5075615;28;20207;-64
2023/01/13 14:11:54;;;;;;;0.65;0.20;;;;;;;;;;5074220;28;20219;-64
2023/01/13 14:14:24;;;;;;;0.30;0.30;;;;;;;;;;5076303;28;20200;-64
2023/01/13 14:16:53;;;;;;;0.20;0.20;;;;;;;;;;5076329;28;20231;-64
2023/01/13 14:19:31;;;;;;;1.17;0.30;;;;;;;;;;5075847;28;20603;-64
2023/01/13 14:21:59;;;;;;;0.30;0.30;;;;;;;;;;5076379;28;20278;-64
2023/01/13 14:24:26;;;;;;;0.63;0.30;;;;;;;;;;5075499;28;20224;-64
2023/01/13 14:26:54;;;;;;;0.30;0.30;;;;;;;;;;5076076;28;20307;-64
2023/01/13 14:29:23;;;;;;;0.52;0.40;;;;;;;;;;5075884;28;20509;-64
2023/01/13 14:31:52;;;;;;;0.28;0.25;;;;;;;;;;5075283;28;20196;-64
2023/01/13 14:34:21;;;;;;;0.22;0.22;;;;;;;;;;5076322;28;20200;-64
2023/01/13 14:36:50;;;;;;;0.63;0.30;;;;;;;;;;5075701;28;20639;-64
2023/01/13 14:39:25;;;;;;;0.57;0.50;;;;;;;;;;5075983;28;20513;-64
2023/01/13 14:41:52;;;;;;;0.30;0.30;;;;;;;;;;5075033;28;20199;-64
2023/01/13 14:44:24;;;;;;;0.28;0.20;;;;;;;;;;5075241;28;20224;-64
2023/01/13 14:46:54;;;;;;;0.45;0.13;;;;;;;;;;5076203;28;20212;-64
2023/01/13 14:49:25;;;;;;;0.40;0.30;;;;;;;;;;5075526;28;20205;-64
2023/01/13 14:51:53;;;;;;;1.27;0.22;;;;;;;;;;5075175;28;20211;-64
2023/01/13 14:54:38;;;;;;;0.55;0.20;;;;;;;;;;5074429;28;20201;-63
2023/01/13 14:57:13;;;;;;;0.40;0.40;;;;;;;;;;5074915;28;20301;-64
2023/01/13 14:59:42;;;;;;;0.70;0.28;;;;;;;;;;5075561;28;20287;-64
2023/01/13 15:02:28;;;;;;;0.50;0.30;;;;;;;;;;5075491;28;20274;-65
2023/01/13 15:04:58;;;;;;;0.22;0.22;;;;;;;;;;5076023;28;20228;-64
2023/01/13 15:07:26;;;;;;;0.20;0.20;;;;;;;;;;5075213;28;20717;-64
2023/01/13 15:09:54;;;;;;;0.40;0.32;;;;;;;;;;5075677;28;20667;-64
2023/01/13 15:12:24;;;;;;;0.40;0.25;;;;;;;;;;5075394;28;20295;-64
2023/01/13 15:14:51;;;;;;;0.35;0.35;;;;;;;;;;5075124;28;20531;-64
2023/01/13 15:17:19;;;;;;;0.40;0.38;;;;;;;;;;5074639;28;20207;-64
2023/01/13 15:19:46;;;;;;;0.40;0.40;;;;;;;;;;5074648;28;20204;-64
2023/01/13 15:22:15;;;;;;;0.22;0.20;;;;;;;;;;5074532;28;20299;-64
2023/01/13 15:24:43;;;;;;;0.20;0.20;;;;;;;;;;5075338;28;20643;-64
2023/01/13 15:27:16;;;;;;;0.30;0.30;;;;;;;;;;5074819;28;20202;-64
2023/01/13 15:29:43;;;;;;;0.28;0.28;;;;;;;;;;5074229;28;20210;-64
2023/01/13 15:32:14;;;;;;;0.30;0.30;;;;;;;;;;5074253;28;20651;-64
2023/01/13 15:34:42;;;;;;;0.25;0.25;;;;;;;;;;5074711;28;20253;-64
2023/01/13 15:37:09;;;;;;;0.52;0.40;;;;;;;;;;5075002;28;20621;-64
2023/01/13 15:39:38;;;;;;;0.47;0.30;;;;;;;;;;5074728;28;20204;-63
2023/01/13 15:47:34;;;;;;;0.45;0.40;;;;;;;;;;5074306;28;20191;-64
2023/01/13 15:50:02;;;;;;;0.35;0.30;;;;;;;;;;5073903;28;20240;-64
2023/01/13 15:52:29;;;;;;;0.30;0.30;;;;;;;;;;5074013;28;20663;-64
2023/01/13 15:54:58;;;;;;;0.70;0.35;;;;;;;;;;5073048;28;20192;-64
2023/01/13 15:57:26;;;;;;;0.30;0.30;;;;;;;;;;5073358;28;20232;-64
2023/01/13 15:59:55;;;;;;;0.30;0.30;;;;;;;;;;5073171;28;20205;-64
2023/01/13 16:02:24;;;;;;;0.30;0.30;;;;;;;;;;5073423;28;20212;-64
2023/01/13 16:04:52;;;;;;;0.20;0.20;;;;;;;;;;5072763;28;20220;-64
2023/01/13 16:07:20;;;;;;;0.50;0.30;;;;;;;;;;5073662;28;20201;-64